Time;durP1;ratioP1;P1;durP2;ratioP2;P2;SDS_P1;SDS_P2;PMS_P1;PMS_P2;Temp;Humidity;BMP_temperature;BMP_pressure;BME280_temperature;BME280_humidity;BME280_pressure;Samples;Min_cycle;Max_cycle;Signal;HPM_P1;HPM_P2
2021/06/03 00:00:18;;;;;;;4.10;3.80;;;19.10;99.90;;;;;;5048386;28;20460;-70
2021/06/03 00:02:44;;;;;;;5.67;4.90;;;19.10;99.90;;;;;;5045400;28;20514;-70
2021/06/03 00:05:10;;;;;;;4.70;4.30;;;19.10;99.90;;;;;;5040551;28;20451;-70
2021/06/03 00:07:36;;;;;;;5.13;4.77;;;19.10;99.90;;;;;;5046836;28;20435;-70
2021/06/03 00:10:05;;;;;;;4.10;3.80;;;19.00;99.90;;;;;;5046991;28;20518;-70
2021/06/03 00:12:31;;;;;;;4.37;4.07;;;19.10;99.90;;;;;;5044872;28;20261;-70
2021/06/03 00:14:57;;;;;;;5.63;4.20;;;19.00;99.90;;;;;;5048540;28;20585;-70
2021/06/03 00:17:22;;;;;;;4.47;4.07;;;18.90;99.90;;;;;;5052803;28;20192;-70
2021/06/03 00:19:48;;;;;;;4.50;4.20;;;18.90;99.90;;;;;;5050214;28;20285;-70
2021/06/03 00:22:14;;;;;;;6.07;5.13;;;18.90;99.90;;;;;;5049860;28;20173;-70
2021/06/03 00:24:39;;;;;;;11.03;5.37;;;18.80;99.90;;;;;;5050821;28;20177;-70
2021/06/03 00:27:05;;;;;;;4.93;4.53;;;18.70;99.90;;;;;;5050858;28;20176;-70
2021/06/03 00:29:30;;;;;;;4.70;4.50;;;18.70;99.90;;;;;;5054021;28;20677;-70
2021/06/03 00:31:56;;;;;;;4.97;4.67;;;18.70;99.90;;;;;;5050710;28;20284;-70
2021/06/03 00:34:22;;;;;;;4.63;4.23;;;18.60;99.90;;;;;;5048962;28;20260;-70
2021/06/03 00:36:47;;;;;;;4.43;4.13;;;18.60;99.90;;;;;;5044164;28;20181;-70
2021/06/03 00:39:14;;;;;;;5.17;4.73;;;18.60;99.90;;;;;;5048293;28;20271;-70
2021/06/03 00:41:39;;;;;;;4.63;4.33;;;18.60;99.90;;;;;;5051026;28;20201;-70
2021/06/03 00:44:05;;;;;;;5.10;4.60;;;18.50;99.90;;;;;;5050894;28;20423;-70
2021/06/03 00:46:31;;;;;;;5.20;4.80;;;18.50;99.90;;;;;;5048620;28;20206;-70
2021/06/03 00:48:57;;;;;;;4.53;4.13;;;18.50;99.90;;;;;;5049935;28;20529;-70
2021/06/03 00:51:24;;;;;;;5.20;4.70;;;18.50;99.90;;;;;;5050601;28;20630;-70
2021/06/03 00:53:50;;;;;;;4.67;4.30;;;18.40;99.90;;;;;;5052541;28;20505;-70
2021/06/03 00:56:17;;;;;;;4.30;3.93;;;18.40;99.90;;;;;;5050555;28;20427;-70
2021/06/03 00:58:43;;;;;;;4.97;4.57;;;18.40;99.90;;;;;;5049734;28;20518;-70
2021/06/03 01:01:08;;;;;;;4.10;3.90;;;18.30;99.90;;;;;;5047345;28;20562;-70
2021/06/03 01:03:34;;;;;;;5.10;4.63;;;18.30;99.90;;;;;;5051380;28;20173;-70
2021/06/03 01:06:07;;;;;;;5.20;4.43;;;18.20;99.90;;;;;;5051008;28;20264;-70
2021/06/03 01:08:47;;;;;;;5.50;5.00;;;18.20;99.90;;;;;;5047184;28;20169;-70
2021/06/03 01:11:24;;;;;;;4.70;4.40;;;18.20;99.90;;;;;;5051193;28;20438;-70
2021/06/03 01:14:26;;;;;;;4.93;4.53;;;18.10;99.90;;;;;;5047389;28;20892;-70
2021/06/03 01:16:55;;;;;;;5.60;5.10;;;18.10;99.90;;;;;;5025410;28;20443;-70
2021/06/03 01:19:27;;;;;;;5.37;4.97;;;18.00;99.90;;;;;;5047026;28;20763;-70
2021/06/03 01:21:57;;;;;;;5.57;4.70;;;18.00;99.90;;;;;;5050425;28;20431;-70
2021/06/03 01:24:38;;;;;;;5.17;4.80;;;18.00;99.90;;;;;;5049638;28;20423;-70
2021/06/03 01:27:11;;;;;;;4.60;4.17;;;17.80;99.90;;;;;;5049083;28;20793;-70
2021/06/03 01:29:48;;;;;;;5.10;4.60;;;17.80;99.90;;;;;;5046258;28;20444;-70
2021/06/03 01:32:14;;;;;;;5.97;5.57;;;17.70;99.90;;;;;;5050924;28;20961;-70
2021/06/03 01:34:41;;;;;;;5.03;4.63;;;17.60;99.90;;;;;;5052208;28;20432;-70
2021/06/03 01:37:07;;;;;;;4.87;4.07;;;17.40;99.90;;;;;;5045511;28;20432;-70
2021/06/03 01:39:35;;;;;;;5.70;5.17;;;17.30;99.90;;;;;;5049234;28;20513;-70
2021/06/03 01:42:02;;;;;;;5.40;5.10;;;17.30;99.90;;;;;;5051129;28;20432;-70
2021/06/03 01:44:28;;;;;;;4.73;4.33;;;17.30;99.90;;;;;;5050346;28;20432;-70
2021/06/03 01:46:55;;;;;;;5.53;4.57;;;17.30;99.90;;;;;;5050626;28;20471;-70
2021/06/03 01:49:23;;;;;;;4.87;4.57;;;17.20;99.90;;;;;;5048677;28;20451;-70
2021/06/03 01:51:48;;;;;;;5.47;5.10;;;17.10;99.90;;;;;;5050272;28;20439;-70
2021/06/03 01:54:14;;;;;;;5.10;4.63;;;17.10;99.90;;;;;;5050707;28;20439;-70
2021/06/03 01:56:41;;;;;;;5.30;4.93;;;17.10;99.90;;;;;;5051317;28;20201;-70
2021/06/03 01:59:07;;;;;;;5.83;5.30;;;17.00;99.90;;;;;;5050509;28;20439;-70
2021/06/03 02:01:32;;;;;;;5.40;4.80;;;17.00;99.90;;;;;;5047830;28;20438;-70
2021/06/03 02:03:59;;;;;;;5.07;4.67;;;17.00;99.90;;;;;;5048109;28;20202;-69
2021/06/03 02:06:25;;;;;;;5.20;4.80;;;16.90;99.90;;;;;;5051129;28;20184;-70
2021/06/03 02:08:51;;;;;;;5.70;5.17;;;16.90;99.90;;;;;;5049380;28;20428;-69
2021/06/03 02:11:19;;;;;;;6.27;5.77;;;16.80;99.90;;;;;;5048408;28;20196;-70
2021/06/03 02:13:55;;;;;;;4.57;4.37;;;16.80;99.90;;;;;;5046862;28;20184;-70
2021/06/03 02:16:22;;;;;;;6.27;5.60;;;16.80;99.90;;;;;;5049078;28;20465;-70
2021/06/03 02:18:59;;;;;;;4.93;4.53;;;16.80;99.90;;;;;;5050537;28;20436;-70
2021/06/03 02:21:26;;;;;;;5.93;5.40;;;16.80;99.90;;;;;;5048880;28;20419;-70
2021/06/03 02:23:53;;;;;;;5.40;4.90;;;16.70;99.90;;;;;;5046330;28;20427;-70
2021/06/03 02:26:20;;;;;;;4.90;4.60;;;16.70;99.90;;;;;;5051350;28;20416;-69
2021/06/03 02:28:48;;;;;;;5.97;5.50;;;16.60;99.90;;;;;;5046296;28;20436;-70
2021/06/03 02:31:14;;;;;;;6.00;5.60;;;16.60;99.90;;;;;;5050007;28;20565;-70
2021/06/03 02:33:40;;;;;;;5.73;5.17;;;16.50;99.90;;;;;;5049097;28;20526;-70
2021/06/03 02:36:07;;;;;;;5.60;5.20;;;16.50;99.90;;;;;;5048833;28;20174;-70
2021/06/03 02:38:35;;;;;;;5.97;5.57;;;16.40;99.90;;;;;;5049981;28;20515;-70
2021/06/03 02:41:06;;;;;;;5.10;4.70;;;16.40;99.90;;;;;;5045958;28;20589;-70
2021/06/03 02:43:34;;;;;;;5.93;5.53;;;16.40;99.90;;;;;;5049164;28;20435;-70
2021/06/03 02:46:00;;;;;;;5.17;4.77;;;16.30;99.90;;;;;;5047406;28;20427;-70
2021/06/03 02:48:27;;;;;;;6.20;5.70;;;16.20;99.90;;;;;;5047172;28;20443;-69
2021/06/03 02:50:53;;;;;;;5.70;5.20;;;16.20;99.90;;;;;;5047778;28;20765;-69
2021/06/03 02:53:18;;;;;;;5.40;5.00;;;16.20;99.90;;;;;;5045430;28;20444;-70
2021/06/03 02:55:44;;;;;;;5.57;4.90;;;16.10;99.90;;;;;;5050539;28;20216;-69
2021/06/03 02:58:11;;;;;;;6.83;6.33;;;16.20;99.90;;;;;;5049233;28;20193;-69
2021/06/03 03:00:37;;;;;;;5.77;5.27;;;16.10;99.90;;;;;;5048160;28;20315;-70
2021/06/03 03:03:05;;;;;;;5.73;5.30;;;16.10;99.90;;;;;;5047895;28;20914;-70
2021/06/03 03:05:32;;;;;;;5.77;5.30;;;16.10;99.90;;;;;;5049729;28;20907;-69
2021/06/03 03:07:58;;;;;;;7.20;6.60;;;16.10;99.90;;;;;;5047041;28;20751;-69
2021/06/03 03:10:30;;;;;;;5.57;5.17;;;16.00;99.90;;;;;;5049676;28;20500;-69
2021/06/03 03:12:56;;;;;;;5.80;5.40;;;16.00;99.90;;;;;;5045312;28;20177;-69
2021/06/03 03:15:23;;;;;;;5.70;5.33;;;16.00;99.90;;;;;;5047771;28;20431;-69
2021/06/03 03:17:49;;;;;;;5.93;5.53;;;16.00;99.90;;;;;;5049527;28;20435;-69
2021/06/03 03:20:17;;;;;;;7.70;6.20;;;16.00;99.90;;;;;;5049847;28;20574;-69
2021/06/03 03:22:43;;;;;;;6.10;5.60;;;16.00;99.90;;;;;;5046554;28;20522;-70
2021/06/03 03:25:11;;;;;;;6.50;5.90;;;16.00;99.90;;;;;;5050127;28;20435;-69
2021/06/03 03:27:41;;;;;;;6.53;6.03;;;16.00;99.90;;;;;;5046965;28;20726;-70
2021/06/03 03:30:08;;;;;;;6.40;5.90;;;16.00;99.90;;;;;;5049611;28;20432;-69
2021/06/03 03:32:35;;;;;;;6.00;5.20;;;16.00;99.90;;;;;;5046248;28;20476;-69
2021/06/03 03:35:01;;;;;;;5.73;5.20;;;16.10;99.90;;;;;;5049816;28;20439;-69
2021/06/03 03:37:28;;;;;;;9.00;5.80;;;16.10;99.90;;;;;;5048222;28;20497;-70
2021/06/03 03:39:55;;;;;;;6.10;5.70;;;16.10;99.90;;;;;;5048618;28;20456;-69
2021/06/03 03:42:21;;;;;;;5.60;5.27;;;16.20;99.90;;;;;;5044760;28;20438;-69
2021/06/03 03:44:47;;;;;;;6.10;5.60;;;16.20;99.90;;;;;;5048997;28;20757;-70
2021/06/03 03:47:13;;;;;;;5.67;5.17;;;16.20;99.90;;;;;;5047895;28;20458;-69
2021/06/03 03:49:38;;;;;;;6.50;5.30;;;16.20;99.90;;;;;;5048899;28;20473;-70
2021/06/03 03:52:05;;;;;;;5.67;5.17;;;16.20;99.90;;;;;;5046944;28;20200;-70
2021/06/03 03:54:31;;;;;;;6.07;5.57;;;16.30;99.90;;;;;;5048488;28;20169;-69
2021/06/03 03:56:57;;;;;;;6.30;5.83;;;16.30;99.90;;;;;;5049516;28;20432;-69
2021/06/03 03:59:23;;;;;;;6.40;5.90;;;16.30;99.90;;;;;;5047301;28;20470;-69
2021/06/03 04:01:52;;;;;;;5.73;5.40;;;16.30;99.90;;;;;;5044402;28;20518;-70
2021/06/03 04:04:19;;;;;;;5.47;5.07;;;16.30;99.90;;;;;;5045232;28;20424;-69
2021/06/03 04:06:45;;;;;;;11.93;6.00;;;16.30;99.90;;;;;;5047653;28;20432;-69
2021/06/03 04:09:10;;;;;;;6.27;5.77;;;16.20;99.90;;;;;;5048969;28;20435;-69
2021/06/03 04:11:36;;;;;;;4.90;4.60;;;16.20;99.90;;;;;;5044034;28;20170;-68
2021/06/03 04:14:02;;;;;;;6.33;5.90;;;16.20;99.90;;;;;;5044177;28;20513;-70
2021/06/03 04:16:28;;;;;;;6.07;5.63;;;16.20;99.90;;;;;;5042426;28;20208;-70
2021/06/03 04:18:53;;;;;;;5.10;4.77;;;16.30;99.90;;;;;;5045752;28;20180;-70
2021/06/03 04:21:19;;;;;;;6.30;5.87;;;16.20;99.90;;;;;;5046743;28;20276;-70
2021/06/03 04:23:45;;;;;;;5.90;5.37;;;16.30;99.90;;;;;;5046597;28;20181;-70
2021/06/03 04:26:11;;;;;;;5.60;5.10;;;16.30;99.90;;;;;;5048742;28;20230;-70
2021/06/03 04:28:37;;;;;;;5.53;5.10;;;16.30;99.90;;;;;;5042955;28;20420;-69
2021/06/03 04:31:03;;;;;;;5.30;4.80;;;16.30;99.90;;;;;;5046427;28;20907;-70
2021/06/03 04:33:29;;;;;;;5.63;5.23;;;16.30;99.90;;;;;;5049111;28;20181;-70
2021/06/03 04:35:55;;;;;;;5.60;5.17;;;16.40;99.90;;;;;;5043619;28;20446;-70
2021/06/03 04:38:21;;;;;;;6.47;5.93;;;16.40;99.90;;;;;;5050168;28;20243;-70
2021/06/03 04:40:47;;;;;;;6.67;5.57;;;16.50;99.90;;;;;;5043838;28;20206;-70
2021/06/03 04:43:13;;;;;;;6.00;5.50;;;16.50;99.90;;;;;;5048090;28;20747;-70
2021/06/03 04:45:39;;;;;;;6.00;5.50;;;16.50;99.90;;;;;;5046991;28;20426;-70
2021/06/03 04:48:07;;;;;;;5.73;5.33;;;16.50;99.90;;;;;;5046269;28;20178;-70
2021/06/03 04:50:35;;;;;;;5.30;4.90;;;16.50;99.90;;;;;;5042291;28;20538;-70
2021/06/03 04:53:01;;;;;;;5.47;5.07;;;16.50;99.90;;;;;;5042280;28;20581;-70
2021/06/03 04:55:27;;;;;;;6.00;5.50;;;16.60;99.90;;;;;;5046525;28;20519;-70
2021/06/03 04:57:54;;;;;;;6.30;5.80;;;16.70;99.90;;;;;;5049878;28;20531;-70
2021/06/03 05:00:29;;;;;;;5.57;5.17;;;16.80;99.90;;;;;;5050424;28;20443;-70
2021/06/03 05:02:56;;;;;;;6.43;5.80;;;16.80;99.90;;;;;;5045023;28;20486;-69
2021/06/03 05:05:22;;;;;;;5.43;5.03;;;16.80;99.90;;;;;;5046206;28;20431;-71
2021/06/03 05:07:48;;;;;;;6.10;5.60;;;16.80;99.90;;;;;;5044698;28;20431;-71
2021/06/03 05:10:16;;;;;;;5.50;5.10;;;16.90;99.90;;;;;;5049536;28;21007;-71
2021/06/03 05:12:42;;;;;;;6.23;4.87;;;16.90;99.90;;;;;;5050953;28;20181;-71
2021/06/03 05:15:09;;;;;;;6.07;5.63;;;17.00;99.90;;;;;;5052614;28;20439;-71
2021/06/03 05:17:35;;;;;;;5.37;5.07;;;17.00;99.90;;;;;;5053358;28;20903;-71
2021/06/03 05:20:03;;;;;;;6.40;5.60;;;17.10;99.90;;;;;;5050452;28;20498;-71
2021/06/03 05:22:29;;;;;;;6.17;5.57;;;17.10;99.90;;;;;;5051344;28;20440;-71
2021/06/03 05:24:55;;;;;;;6.30;5.80;;;17.10;99.90;;;;;;5051680;28;20438;-71
2021/06/03 05:27:20;;;;;;;6.57;5.97;;;17.20;99.90;;;;;;5048189;28;20170;-71
2021/06/03 05:29:46;;;;;;;5.93;5.53;;;17.20;99.90;;;;;;5047896;28;20219;-71
2021/06/03 05:32:12;;;;;;;5.70;5.17;;;17.20;99.90;;;;;;5045524;28;20181;-71
2021/06/03 05:34:38;;;;;;;6.13;5.53;;;17.20;99.90;;;;;;5043112;28;20435;-71
2021/06/03 05:37:04;;;;;;;7.23;5.53;;;17.20;99.90;;;;;;5042396;28;20216;-71
2021/06/03 05:39:30;;;;;;;6.90;6.40;;;17.20;99.90;;;;;;5039292;28;20278;-71
2021/06/03 05:41:55;;;;;;;5.83;5.33;;;17.20;99.90;;;;;;5036082;28;20432;-72
2021/06/03 05:44:21;;;;;;;6.10;5.60;;;17.30;99.90;;;;;;5046163;28;20470;-71
2021/06/03 05:46:47;;;;;;;6.37;5.87;;;17.30;99.90;;;;;;5045683;28;20542;-72
2021/06/03 05:49:13;;;;;;;6.10;5.50;;;17.30;99.90;;;;;;5041627;28;20193;-71
2021/06/03 05:51:40;;;;;;;7.40;6.70;;;17.30;99.90;;;;;;5044612;28;20639;-71
2021/06/03 05:54:07;;;;;;;6.00;5.50;;;17.40;99.90;;;;;;5043636;28;20192;-71
2021/06/03 05:56:33;;;;;;;5.60;5.20;;;17.30;99.90;;;;;;5042932;28;20949;-72
2021/06/03 05:58:59;;;;;;;7.30;5.50;;;17.30;99.90;;;;;;5048234;28;20474;-71
2021/06/03 06:01:25;;;;;;;5.50;5.20;;;17.40;99.90;;;;;;5045119;28;20209;-71
2021/06/03 06:06:26;;;;;;;8.60;6.70;;;17.50;99.90;;;;;;5043562;28;20460;-72
2021/06/03 06:09:05;;;;;;;9.10;6.73;;;17.50;99.90;;;;;;5047939;28;20416;-71
2021/06/03 06:11:33;;;;;;;6.17;5.50;;;17.50;99.90;;;;;;5053220;28;20419;-72
2021/06/03 06:14:00;;;;;;;7.03;6.33;;;17.70;99.90;;;;;;5050580;28;20446;-72
2021/06/03 06:16:26;;;;;;;6.60;6.10;;;17.70;99.90;;;;;;5053930;28;20412;-72
2021/06/03 06:18:51;;;;;;;5.20;4.90;;;17.80;99.90;;;;;;5050468;28;20809;-71
2021/06/03 06:21:18;;;;;;;6.57;5.90;;;17.90;99.90;;;;;;5053228;28;20803;-72
2021/06/03 06:23:45;;;;;;;7.67;6.80;;;18.00;99.90;;;;;;5053056;28;20173;-72
2021/06/03 06:26:11;;;;;;;5.47;5.10;;;18.10;99.90;;;;;;5051235;28;20508;-72
2021/06/03 06:28:37;;;;;;;7.77;5.90;;;18.00;99.90;;;;;;5053327;28;20419;-72
2021/06/03 06:31:05;;;;;;;6.10;5.17;;;18.10;99.90;;;;;;5052108;28;20181;-72
2021/06/03 06:33:32;;;;;;;7.80;6.47;;;18.10;99.90;;;;;;5048452;28;20431;-71
2021/06/03 06:35:58;;;;;;;6.27;5.50;;;18.20;99.90;;;;;;5043954;28;20448;-72
2021/06/03 06:38:23;;;;;;;10.27;9.20;;;18.20;99.90;;;;;;5049137;28;20562;-72
2021/06/03 06:40:50;;;;;;;6.80;6.20;;;18.20;99.90;;;;;;5038523;28;20704;-72
2021/06/03 06:43:16;;;;;;;6.23;5.27;;;18.30;99.90;;;;;;5049838;28;20181;-71
2021/06/03 06:45:43;;;;;;;6.33;5.77;;;18.40;99.90;;;;;;5049010;28;20466;-71
2021/06/03 06:48:10;;;;;;;5.70;5.37;;;18.40;99.90;;;;;;5048569;28;20432;-72
2021/06/03 06:50:37;;;;;;;5.63;5.13;;;18.50;99.90;;;;;;5048799;28;20987;-72
2021/06/03 06:53:05;;;;;;;5.40;4.97;;;18.80;99.90;;;;;;5045425;28;20431;-71
2021/06/03 06:55:32;;;;;;;6.53;6.00;;;18.90;99.90;;;;;;5046452;28;20476;-71
2021/06/03 06:57:59;;;;;;;5.80;5.30;;;19.10;99.90;;;;;;5045668;28;20435;-71
2021/06/03 07:00:27;;;;;;;6.10;5.60;;;19.20;99.90;;;;;;5042591;28;20521;-71
2021/06/03 07:02:53;;;;;;;6.10;5.57;;;19.20;99.90;;;;;;5046875;28;20427;-71
2021/06/03 07:05:20;;;;;;;6.83;6.13;;;19.40;99.90;;;;;;5045287;28;20424;-71
2021/06/03 07:07:45;;;;;;;8.73;5.00;;;19.50;99.90;;;;;;5047071;28;20440;-71
2021/06/03 07:10:12;;;;;;;5.93;5.33;;;19.60;99.90;;;;;;5046825;28;20432;-71
2021/06/03 07:12:39;;;;;;;6.37;5.87;;;19.80;99.90;;;;;;5045319;28;20177;-71
2021/06/03 07:15:10;;;;;;;5.53;5.10;;;19.90;99.90;;;;;;5041373;28;20522;-71
2021/06/03 07:17:36;;;;;;;6.17;5.77;;;20.00;99.90;;;;;;5042015;28;20427;-72
2021/06/03 07:20:07;;;;;;;5.83;5.33;;;20.10;99.90;;;;;;5042604;28;20470;-72
2021/06/03 07:22:33;;;;;;;5.60;5.03;;;20.10;99.90;;;;;;5044722;28;20514;-71
2021/06/03 07:24:58;;;;;;;5.77;5.33;;;20.20;99.90;;;;;;5041717;28;20427;-71
2021/06/03 07:27:24;;;;;;;6.07;5.57;;;20.20;99.90;;;;;;5046444;28;20436;-72
2021/06/03 07:29:56;;;;;;;5.60;5.20;;;20.30;99.90;;;;;;5049297;28;20220;-72
2021/06/03 07:32:23;;;;;;;5.13;4.73;;;20.40;99.90;;;;;;5042761;28;20424;-71
2021/06/03 07:34:49;;;;;;;5.10;4.70;;;20.60;99.90;;;;;;5047690;28;21097;-72
2021/06/03 07:37:15;;;;;;;5.83;5.30;;;20.70;99.90;;;;;;5044094;28;20472;-72
2021/06/03 07:39:42;;;;;;;6.07;5.67;;;20.70;99.90;;;;;;5048728;28;20633;-72
2021/06/03 07:42:09;;;;;;;5.97;5.57;;;20.90;99.90;;;;;;5023964;28;20264;-72
2021/06/03 07:44:35;;;;;;;6.33;5.93;;;21.00;99.90;;;;;;5026978;28;20412;-72
2021/06/03 07:47:02;;;;;;;5.70;5.30;;;21.10;99.90;;;;;;5047776;28;20426;-72
2021/06/03 07:49:29;;;;;;;4.80;4.40;;;21.20;99.90;;;;;;5048279;28;20435;-72
2021/06/03 07:51:56;;;;;;;5.80;5.30;;;21.30;99.90;;;;;;5032716;28;20415;-72
2021/06/03 07:54:24;;;;;;;5.40;4.90;;;21.50;99.90;;;;;;5043642;28;20424;-72
2021/06/03 07:56:50;;;;;;;6.63;6.03;;;21.60;99.90;;;;;;5045949;28;20447;-72
2021/06/03 07:59:16;;;;;;;5.30;4.90;;;21.60;99.90;;;;;;5040257;28;20933;-72
2021/06/03 08:01:42;;;;;;;6.23;5.73;;;21.70;99.90;;;;;;5038527;28;20211;-72
2021/06/03 08:04:07;;;;;;;5.47;5.07;;;21.80;99.90;;;;;;5045297;28;20185;-72
2021/06/03 08:06:33;;;;;;;6.63;5.73;;;21.90;99.90;;;;;;5046901;28;20189;-72
2021/06/03 08:08:59;;;;;;;4.93;4.53;;;22.00;99.90;;;;;;5044006;28;20209;-72
2021/06/03 08:11:25;;;;;;;5.70;5.20;;;22.00;99.90;;;;;;5046602;28;20439;-72
2021/06/03 08:13:51;;;;;;;5.40;4.90;;;22.10;99.90;;;;;;5044599;28;20810;-72
2021/06/03 08:16:18;;;;;;;5.47;5.07;;;22.20;99.90;;;;;;5045110;28;20189;-72
2021/06/03 08:18:44;;;;;;;5.50;5.00;;;22.30;99.90;;;;;;5046434;28;20509;-72
2021/06/03 08:21:10;;;;;;;6.10;5.20;;;22.40;99.90;;;;;;5044489;28;20463;-72
2021/06/03 08:23:36;;;;;;;5.17;4.87;;;22.50;99.90;;;;;;5045594;28;20216;-72
2021/06/03 08:26:02;;;;;;;6.80;4.90;;;22.70;99.90;;;;;;5039209;28;20276;-72
2021/06/03 08:28:28;;;;;;;5.43;4.93;;;22.90;99.90;;;;;;5043867;28;20505;-72
2021/06/03 08:30:56;;;;;;;5.20;4.80;;;23.00;99.90;;;;;;5040725;28;20823;-72
2021/06/03 08:33:23;;;;;;;5.50;5.00;;;23.10;99.90;;;;;;5044264;28;20440;-72
2021/06/03 08:35:49;;;;;;;6.20;5.40;;;23.20;99.90;;;;;;5047345;28;20975;-72
2021/06/03 08:38:16;;;;;;;5.60;5.30;;;23.20;99.90;;;;;;5047007;28;20544;-72
2021/06/03 08:40:47;;;;;;;4.97;4.67;;;23.10;99.90;;;;;;5047692;28;20291;-72
2021/06/03 08:43:14;;;;;;;5.60;5.10;;;23.20;99.90;;;;;;5049265;28;20904;-72
2021/06/03 08:45:42;;;;;;;6.47;5.47;;;23.10;99.90;;;;;;5049382;28;20731;-72
2021/06/03 08:48:09;;;;;;;4.93;4.60;;;23.00;99.90;;;;;;5047981;28;20478;-73
2021/06/03 08:50:39;;;;;;;5.37;4.97;;;23.00;99.90;;;;;;5049192;28;20436;-73
2021/06/03 08:53:05;;;;;;;6.10;5.60;;;23.00;99.90;;;;;;5048930;28;20435;-73
2021/06/03 08:58:18;;;;;;;5.07;4.67;;;23.10;99.90;;;;;;5050553;28;20430;-72
2021/06/03 09:00:45;;;;;;;7.20;5.30;;;23.30;99.90;;;;;;5046084;28;20463;-72
2021/06/03 09:03:11;;;;;;;5.60;4.90;;;23.40;99.90;;;;;;5046750;28;20536;-72
2021/06/03 09:05:38;;;;;;;5.13;4.83;;;23.50;99.90;;;;;;5047961;28;20461;-72
2021/06/03 09:08:18;;;;;;;7.10;5.37;;;23.60;99.90;;;;;;5046213;28;20439;-76
2021/06/03 09:10:46;;;;;;;5.73;5.27;;;23.60;99.90;;;;;;5048682;28;20438;-72
2021/06/03 09:13:20;;;;;;;6.40;5.10;;;23.60;99.90;;;;;;5045647;28;20442;-72
2021/06/03 09:16:11;;;;;;;7.10;5.10;;;23.40;99.90;;;;;;5047812;28;20542;-72
2021/06/03 09:18:39;;;;;;;5.60;4.93;;;23.40;99.90;;;;;;5050009;28;20435;-72
2021/06/03 09:21:13;;;;;;;4.97;4.77;;;23.40;99.90;;;;;;5048874;28;20927;-72
2021/06/03 09:23:44;;;;;;;4.93;4.63;;;23.40;99.90;;;;;;5047767;28;20430;-71
2021/06/03 09:26:16;;;;;;;5.13;4.83;;;23.40;99.90;;;;;;5044127;28;20427;-72
2021/06/03 09:28:46;;;;;;;5.63;5.13;;;23.50;99.90;;;;;;5042855;28;20490;-72
2021/06/03 09:31:21;;;;;;;5.20;4.70;;;23.50;99.90;;;;;;5043409;28;20435;-72
2021/06/03 09:34:01;;;;;;;5.90;5.33;;;23.50;99.90;;;;;;5044161;28;20465;-71
2021/06/03 09:36:44;;;;;;;8.47;5.67;;;23.50;99.90;;;;;;5044808;28;21092;-71
2021/06/03 09:39:14;;;;;;;5.50;5.07;;;23.40;99.90;;;;;;5044996;28;20761;-71
2021/06/03 09:41:53;;;;;;;5.97;5.47;;;23.40;99.90;;;;;;5046061;28;20584;-71
2021/06/03 09:44:24;;;;;;;5.40;5.00;;;23.30;99.90;;;;;;5047727;28;20462;-71
2021/06/03 09:46:53;;;;;;;5.83;5.23;;;23.20;99.90;;;;;;5049379;28;20432;-71
2021/06/03 09:49:28;;;;;;;5.83;5.43;;;23.10;99.90;;;;;;5048930;28;20451;-71
2021/06/03 09:51:57;;;;;;;5.63;5.33;;;23.10;99.90;;;;;;5050349;28;20432;-71
2021/06/03 09:54:24;;;;;;;6.10;5.57;;;23.10;99.90;;;;;;5049366;28;20489;-71
2021/06/03 09:56:52;;;;;;;5.77;5.27;;;23.10;99.90;;;;;;5048663;28;20431;-71
2021/06/03 09:59:20;;;;;;;5.90;5.40;;;23.20;99.90;;;;;;5048301;28;20440;-70
2021/06/03 10:01:51;;;;;;;7.07;6.30;;;23.10;99.90;;;;;;5050334;28;20446;-70
2021/06/03 10:04:28;;;;;;;5.23;4.83;;;23.10;99.90;;;;;;5051193;28;20515;-70
2021/06/03 10:06:58;;;;;;;6.00;5.50;;;23.00;99.90;;;;;;5046121;28;20428;-71
2021/06/03 10:09:48;;;;;;;6.13;5.63;;;23.00;99.90;;;;;;5050023;28;20431;-72
2021/06/03 10:12:23;;;;;;;6.20;5.67;;;23.10;99.90;;;;;;5048964;28;20501;-71
2021/06/03 10:14:50;;;;;;;6.00;5.60;;;23.10;99.90;;;;;;5050037;28;20459;-72
2021/06/03 10:17:19;;;;;;;5.50;5.10;;;23.00;99.90;;;;;;5047986;28;20995;-71
2021/06/03 10:19:47;;;;;;;6.10;5.30;;;23.00;99.90;;;;;;5048554;28;21008;-71
2021/06/03 10:22:17;;;;;;;5.40;4.90;;;23.00;99.90;;;;;;5050421;28;20905;-71
2021/06/03 10:25:11;;;;;;;5.63;5.13;;;23.00;99.90;;;;;;5047304;28;20434;-72
2021/06/03 10:27:47;;;;;;;5.53;5.20;;;23.00;99.90;;;;;;5041381;28;20859;-73
2021/06/03 10:30:15;;;;;;;4.90;4.50;;;22.90;99.90;;;;;;5051871;28;20549;-70
2021/06/03 10:32:42;;;;;;;5.13;4.73;;;22.90;99.90;;;;;;5047593;28;20436;-70
2021/06/03 10:35:11;;;;;;;5.70;5.30;;;22.90;99.90;;;;;;5048482;28;20443;-72
2021/06/03 10:37:38;;;;;;;8.07;5.60;;;22.90;99.90;;;;;;5046577;28;20549;-71
2021/06/03 10:40:07;;;;;;;5.83;5.43;;;22.90;99.90;;;;;;5046460;28;20466;-71
2021/06/03 10:42:34;;;;;;;5.53;5.10;;;22.90;99.90;;;;;;5044617;28;20432;-72
2021/06/03 10:45:03;;;;;;;5.30;4.80;;;22.90;99.90;;;;;;5043758;28;20427;-71
2021/06/03 10:47:29;;;;;;;5.53;4.90;;;22.90;99.90;;;;;;5043343;28;20431;-72
2021/06/03 10:49:57;;;;;;;5.03;4.73;;;22.90;99.90;;;;;;5045036;28;20456;-71
2021/06/03 10:52:23;;;;;;;5.83;5.43;;;22.80;99.90;;;;;;5049910;28;20436;-71
2021/06/03 10:54:54;;;;;;;5.73;5.33;;;22.80;99.90;;;;;;5047509;28;20439;-72
2021/06/03 10:57:23;;;;;;;5.30;5.10;;;22.60;99.90;;;;;;5041495;28;20272;-71
2021/06/03 10:59:50;;;;;;;5.50;5.20;;;22.60;99.90;;;;;;5048994;28;20459;-72
2021/06/03 11:02:17;;;;;;;6.27;5.67;;;22.60;99.90;;;;;;5043056;28;20436;-72
2021/06/03 11:04:44;;;;;;;6.27;5.93;;;22.60;99.90;;;;;;5043517;28;20451;-72
2021/06/03 11:07:12;;;;;;;5.97;5.57;;;22.80;99.90;;;;;;5046203;28;20432;-71
2021/06/03 11:09:44;;;;;;;6.77;6.17;;;22.80;99.90;;;;;;5042710;28;20451;-71
2021/06/03 11:12:14;;;;;;;6.27;5.77;;;22.70;99.90;;;;;;5048765;28;22739;-72
2021/06/03 11:15:11;;;;;;;6.33;5.73;;;22.60;99.90;;;;;;5048045;28;20914;-71
2021/06/03 11:17:56;;;;;;;5.40;5.07;;;22.40;99.90;;;;;;5051360;28;20445;-72
2021/06/03 11:20:43;;;;;;;6.40;5.80;;;22.40;99.90;;;;;;5041079;28;20454;-72
2021/06/03 11:23:47;;;;;;;6.60;5.90;;;22.30;99.90;;;;;;5047694;28;20458;-72
2021/06/03 11:26:57;;;;;;;6.30;5.70;;;22.30;99.90;;;;;;5005494;28;20929;-72
2021/06/03 11:29:28;;;;;;;6.73;6.13;;;22.50;99.90;;;;;;4999160;28;20426;-72
2021/06/03 11:32:02;;;;;;;7.33;6.63;;;22.50;99.90;;;;;;5035690;28;20439;-72
2021/06/03 11:34:49;;;;;;;6.30;5.80;;;22.70;99.90;;;;;;5047621;28;20427;-72
2021/06/03 11:37:20;;;;;;;6.47;6.07;;;22.70;99.90;;;;;;5038274;28;20438;-72
2021/06/03 11:39:53;;;;;;;6.17;5.70;;;22.70;99.90;;;;;;5050984;28;20459;-72
2021/06/03 11:42:33;;;;;;;6.13;5.70;;;22.80;99.90;;;;;;5046638;28;20459;-72
2021/06/03 11:45:38;;;;;;;7.37;5.80;;;22.80;99.90;;;;;;5048508;28;20473;-72
2021/06/03 11:48:06;;;;;;;5.30;5.00;;;23.00;99.90;;;;;;5040964;28;20483;-71
2021/06/03 11:50:31;;;;;;;6.37;5.90;;;23.10;99.90;;;;;;5048584;28;20922;-72
2021/06/03 11:53:00;;;;;;;6.50;5.90;;;23.20;99.90;;;;;;5046772;28;20432;-72
2021/06/03 11:55:26;;;;;;;6.83;6.33;;;23.30;99.90;;;;;;5048621;28;20185;-72
2021/06/03 11:58:25;;;;;;;6.40;5.80;;;23.30;99.90;;;;;;5045579;28;20471;-72
2021/06/03 12:01:27;;;;;;;5.30;5.00;;;23.50;99.90;;;;;;5041194;28;20808;-72
2021/06/03 12:04:09;;;;;;;5.37;4.93;;;23.60;99.90;;;;;;5046502;28;20892;-72
2021/06/03 12:06:45;;;;;;;6.20;5.80;;;23.70;99.90;;;;;;5046907;28;20463;-72
2021/06/03 12:09:18;;;;;;;5.60;5.10;;;23.70;99.90;;;;;;5043376;28;20829;-70
2021/06/03 12:11:47;;;;;;;6.57;5.70;;;23.80;99.90;;;;;;5049863;28;20467;-70
2021/06/03 12:14:28;;;;;;;5.73;5.27;;;23.80;99.90;;;;;;5048500;28;20438;-69
2021/06/03 12:16:58;;;;;;;5.70;5.30;;;23.80;99.90;;;;;;5043967;28;20516;-70
2021/06/03 12:19:35;;;;;;;6.50;6.07;;;23.90;99.90;;;;;;5044522;28;20435;-69
2021/06/03 12:22:07;;;;;;;6.00;5.60;;;23.90;99.90;;;;;;5048364;28;20438;-70
2021/06/03 12:24:50;;;;;;;6.23;5.10;;;24.00;99.90;;;;;;5046668;28;20427;-70
2021/06/03 12:27:27;;;;;;;7.40;6.80;;;23.90;99.90;;;;;;5048733;28;20431;-69
2021/06/03 12:29:54;;;;;;;6.57;5.63;;;23.80;99.90;;;;;;5044786;28;20774;-70
2021/06/03 12:32:21;;;;;;;5.37;4.90;;;23.80;99.90;;;;;;5041182;28;20427;-71
2021/06/03 12:34:48;;;;;;;5.80;5.40;;;23.80;99.90;;;;;;5047040;28;20472;-70
2021/06/03 12:37:26;;;;;;;5.40;5.00;;;23.80;99.90;;;;;;5042308;28;20466;-70
2021/06/03 12:39:53;;;;;;;5.13;4.83;;;23.80;99.90;;;;;;5051586;28;20534;-70
2021/06/03 12:42:24;;;;;;;6.37;5.77;;;23.60;99.90;;;;;;5051698;28;20431;-70
2021/06/03 12:44:59;;;;;;;5.93;5.27;;;23.50;99.90;;;;;;5050291;28;20507;-70
2021/06/03 12:47:34;;;;;;;5.80;5.50;;;23.40;99.90;;;;;;5052201;28;20446;-71
2021/06/03 12:50:14;;;;;;;6.27;5.77;;;23.40;99.90;;;;;;5048903;28;21002;-71
2021/06/03 12:52:40;;;;;;;5.60;5.20;;;23.50;99.90;;;;;;5053486;28;20550;-70
2021/06/03 12:55:07;;;;;;;6.03;5.63;;;23.50;99.90;;;;;;5052121;28;20442;-71
2021/06/03 12:57:35;;;;;;;5.67;5.23;;;23.50;99.90;;;;;;5051400;28;20427;-70
2021/06/03 13:00:01;;;;;;;7.07;6.37;;;23.60;99.90;;;;;;5047798;28;20456;-71